sensor_id;sensor_type;location;lat;lon;timestamp;pressure;altitude;pressure_sealevel;temperature;humidity
21824;BME280;11074;48.596;9.238;2023-05-12T00:02:17;97916.28;;;13.79;91.50
21824;BME280;11074;48.596;9.238;2023-05-12T00:04:42;97917.41;;;13.73;92.75
21824;BME280;11074;48.596;9.238;2023-05-12T00:07:08;97916.31;;;13.74;91.81
21824;BME280;11074;48.596;9.238;2023-05-12T00:09:34;97911.47;;;13.76;91.79
21824;BME280;11074;48.596;9.238;2023-05-12T00:12:00;97908.84;;;13.66;91.91
21824;BME280;11074;48.596;9.238;2023-05-12T00:14:26;97904.31;;;13.61;92.22
21824;BME280;11074;48.596;9.238;2023-05-12T00:16:52;97905.13;;;13.62;92.22
21824;BME280;11074;48.596;9.238;2023-05-12T00:19:18;97911.00;;;13.64;92.13
21824;BME280;11074;48.596;9.238;2023-05-12T00:21:45;97902.94;;;13.64;91.58
21824;BME280;11074;48.596;9.238;2023-05-12T00:24:10;97897.00;;;13.72;92.29
21824;BME280;11074;48.596;9.238;2023-05-12T00:26:36;97904.03;;;13.68;92.57
21824;BME280;11074;48.596;9.238;2023-05-12T00:29:02;97894.09;;;13.63;92.29
21824;BME280;11074;48.596;9.238;2023-05-12T00:31:29;97898.66;;;13.63;92.50
21824;BME280;11074;48.596;9.238;2023-05-12T00:33:55;97893.56;;;13.61;92.40
21824;BME280;11074;48.596;9.238;2023-05-12T00:36:21;97892.78;;;13.56;92.87
21824;BME280;11074;48.596;9.238;2023-05-12T00:38:47;97894.41;;;13.57;92.05
21824;BME280;11074;48.596;9.238;2023-05-12T00:41:12;97889.28;;;13.55;92.77
21824;BME280;11074;48.596;9.238;2023-05-12T00:43:38;97888.50;;;13.55;92.75
21824;BME280;11074;48.596;9.238;2023-05-12T00:46:04;97894.41;;;13.57;92.28
21824;BME280;11074;48.596;9.238;2023-05-12T00:48:31;97890.94;;;13.51;92.75
21824;BME280;11074;48.596;9.238;2023-05-12T00:50:59;97884.75;;;13.51;92.71
21824;BME280;11074;48.596;9.238;2023-05-12T00:53:25;97881.78;;;13.52;92.61
21824;BME280;11074;48.596;9.238;2023-05-12T00:55:50;97892.81;;;13.51;92.80
21824;BME280;11074;48.596;9.238;2023-05-12T00:58:18;97888.50;;;13.55;92.24
21824;BME280;11074;48.596;9.238;2023-05-12T01:00:43;97893.31;;;13.58;92.46
21824;BME280;11074;48.596;9.238;2023-05-12T01:03:09;97895.41;;;13.66;92.83
21824;BME280;11074;48.596;9.238;2023-05-12T01:06:01;97893.81;;;13.65;92.25
21824;BME280;11074;48.596;9.238;2023-05-12T01:08:31;97893.78;;;13.70;92.64
21824;BME280;11074;48.596;9.238;2023-05-12T01:10:57;97891.66;;;13.67;92.39
21824;BME280;11074;48.596;9.238;2023-05-12T01:13:23;97900.19;;;13.74;93.09
21824;BME280;11074;48.596;9.238;2023-05-12T01:15:51;97904.50;;;13.75;92.40
21824;BME280;11074;48.596;9.238;2023-05-12T01:18:20;97897.75;;;13.77;91.93
21824;BME280;11074;48.596;9.238;2023-05-12T01:20:47;97891.88;;;13.75;91.89
21824;BME280;11074;48.596;9.238;2023-05-12T01:23:18;97895.63;;;13.74;91.42
21824;BME280;11074;48.596;9.238;2023-05-12T01:25:47;97900.44;;;13.77;92.16
21824;BME280;11074;48.596;9.238;2023-05-12T01:28:16;97894.78;;;13.79;91.78
21824;BME280;11074;48.596;9.238;2023-05-12T01:30:42;97898.03;;;13.81;91.64
21824;BME280;11074;48.596;9.238;2023-05-12T01:33:09;97895.34;;;13.81;91.31
21824;BME280;11074;48.596;9.238;2023-05-12T01:35:34;97905.28;;;13.80;90.89
21824;BME280;11074;48.596;9.238;2023-05-12T01:38:00;97902.59;;;13.80;91.27
21824;BME280;11074;48.596;9.238;2023-05-12T01:40:26;97890.22;;;13.79;91.70
21824;BME280;11074;48.596;9.238;2023-05-12T01:42:52;97891.31;;;13.78;91.75
21824;BME280;11074;48.596;9.238;2023-05-12T01:45:18;97889.19;;;13.75;91.68
21824;BME280;11074;48.596;9.238;2023-05-12T01:47:43;97894.28;;;13.77;91.65
21824;BME280;11074;48.596;9.238;2023-05-12T01:50:09;97894.28;;;13.77;91.13
21824;BME280;11074;48.596;9.238;2023-05-12T01:52:35;97898.56;;;13.78;91.32
21824;BME280;11074;48.596;9.238;2023-05-12T01:55:01;97895.34;;;13.76;91.33
21824;BME280;11074;48.596;9.238;2023-05-12T01:57:27;97889.97;;;13.76;91.91
21824;BME280;11074;48.596;9.238;2023-05-12T01:59:52;97890.50;;;13.78;91.89
21824;BME280;11074;48.596;9.238;2023-05-12T02:02:18;97889.19;;;13.75;91.14
21824;BME280;11074;48.596;9.238;2023-05-12T02:04:43;97888.69;;;13.68;92.01
21824;BME280;11074;48.596;9.238;2023-05-12T02:07:09;97898.06;;;13.71;92.01
21824;BME280;11074;48.596;9.238;2023-05-12T02:09:35;97892.69;;;13.71;91.50
21824;BME280;11074;48.596;9.238;2023-05-12T02:12:01;97885.69;;;13.75;92.06
21824;BME280;11074;48.596;9.238;2023-05-12T02:14:26;97883.84;;;13.70;91.93
21824;BME280;11074;48.596;9.238;2023-05-12T02:16:52;97880.09;;;13.66;91.85
21824;BME280;11074;48.596;9.238;2023-05-12T02:19:19;97884.66;;;13.66;92.19
21824;BME280;11074;48.596;9.238;2023-05-12T02:21:46;97886.84;;;13.64;91.75
21824;BME280;11074;48.596;9.238;2023-05-12T02:24:12;97889.00;;;13.62;92.09
21824;BME280;11074;48.596;9.238;2023-05-12T02:26:37;97890.88;;;13.61;92.27
21824;BME280;11074;48.596;9.238;2023-05-12T02:29:03;97894.09;;;13.63;92.95
21824;BME280;11074;48.596;9.238;2023-05-12T02:31:29;97886.53;;;13.65;92.71
21824;BME280;11074;48.596;9.238;2023-05-12T02:33:54;97879.06;;;13.62;92.11
21824;BME280;11074;48.596;9.238;2023-05-12T02:36:20;97883.34;;;13.63;92.05
21824;BME280;11074;48.596;9.238;2023-05-12T02:38:46;97890.06;;;13.61;92.17
21824;BME280;11074;48.596;9.238;2023-05-12T02:41:11;97893.06;;;13.59;92.80
21824;BME280;11074;48.596;9.238;2023-05-12T02:43:37;97890.63;;;13.58;93.44
21824;BME280;11074;48.596;9.238;2023-05-12T02:46:03;97894.94;;;13.59;93.59
21824;BME280;11074;48.596;9.238;2023-05-12T02:48:28;97893.09;;;13.54;93.43
21824;BME280;11074;48.596;9.238;2023-05-12T02:50:54;97898.69;;;13.58;93.74
21824;BME280;11074;48.596;9.238;2023-05-12T02:53:20;97889.28;;;13.55;92.90
21824;BME280;11074;48.596;9.238;2023-05-12T02:55:46;97886.91;;;13.54;93.36
21824;BME280;11074;48.596;9.238;2023-05-12T02:58:11;97892.25;;;13.59;93.98
21824;BME280;11074;48.596;9.238;2023-05-12T03:00:37;97895.19;;;13.57;93.63
21824;BME280;11074;48.596;9.238;2023-05-12T03:03:03;97888.78;;;13.53;93.29
21824;BME280;11074;48.596;9.238;2023-05-12T03:05:28;97880.97;;;13.57;93.40
21824;BME280;11074;48.596;9.238;2023-05-12T03:07:54;97887.38;;;13.61;93.37
21824;BME280;11074;48.596;9.238;2023-05-12T03:10:20;97888.75;;;13.58;93.34
21824;BME280;11074;48.596;9.238;2023-05-12T03:12:46;97888.75;;;13.58;93.20
21824;BME280;11074;48.596;9.238;2023-05-12T03:15:12;97886.88;;;13.59;93.21
21824;BME280;11074;48.596;9.238;2023-05-12T03:17:38;97887.13;;;13.62;93.24
21824;BME280;11074;48.596;9.238;2023-05-12T03:20:04;97902.44;;;13.62;93.02
21824;BME280;11074;48.596;9.238;2023-05-12T03:22:30;97891.44;;;13.58;92.96
21824;BME280;11074;48.596;9.238;2023-05-12T03:24:56;97895.78;;;13.54;92.65
21824;BME280;11074;48.596;9.238;2023-05-12T03:27:21;97896.84;;;13.53;92.66
21824;BME280;11074;48.596;9.238;2023-05-12T03:29:47;97893.34;;;13.53;93.12
21824;BME280;11074;48.596;9.238;2023-05-12T03:32:13;97897.09;;;13.57;93.68
21824;BME280;11074;48.596;9.238;2023-05-12T03:34:39;97891.72;;;13.57;93.16
21824;BME280;11074;48.596;9.238;2023-05-12T03:37:04;97882.34;;;13.54;92.87
21824;BME280;11074;48.596;9.238;2023-05-12T03:39:30;97876.97;;;13.54;93.41
21824;BME280;11074;48.596;9.238;2023-05-12T03:41:56;97885.28;;;13.53;93.39
21824;BME280;11074;48.596;9.238;2023-05-12T03:44:21;97876.72;;;13.51;93.67
21824;BME280;11074;48.596;9.238;2023-05-12T03:46:47;97876.72;;;13.51;93.27
21824;BME280;11074;48.596;9.238;2023-05-12T03:49:13;97881.78;;;13.52;93.49
21824;BME280;11074;48.596;9.238;2023-05-12T03:51:38;97874.53;;;13.53;93.57
21824;BME280;11074;48.596;9.238;2023-05-12T03:54:04;97881.28;;;13.50;92.84
21824;BME280;11074;48.596;9.238;2023-05-12T03:56:30;97870.81;;;13.49;93.27
21824;BME280;11074;48.596;9.238;2023-05-12T03:58:56;97875.66;;;13.47;93.16
21824;BME280;11074;48.596;9.238;2023-05-12T04:01:22;97873.78;;;13.47;92.47
21824;BME280;11074;48.596;9.238;2023-05-12T04:03:50;97877.78;;;13.50;93.54
21824;BME280;11074;48.596;9.238;2023-05-12T04:06:16;97881.53;;;13.54;93.42
21824;BME280;11074;48.596;9.238;2023-05-12T04:08:41;97881.53;;;13.54;93.15
21824;BME280;11074;48.596;9.238;2023-05-12T04:11:07;97882.06;;;13.56;92.81
21824;BME280;11074;48.596;9.238;2023-05-12T04:13:33;97881.25;;;13.55;92.38
21824;BME280;11074;48.596;9.238;2023-05-12T04:15:59;97878.06;;;13.48;92.59
21824;BME280;11074;48.596;9.238;2023-05-12T04:18:27;97880.47;;;13.50;93.70
21824;BME280;11074;48.596;9.238;2023-05-12T04:20:55;97875.09;;;13.50;93.29
21824;BME280;11074;48.596;9.238;2023-05-12T04:23:21;97884.75;;;13.51;92.72
21824;BME280;11074;48.596;9.238;2023-05-12T04:25:47;97889.84;;;13.52;93.34
21824;BME280;11074;48.596;9.238;2023-05-12T04:28:14;97886.38;;;13.52;93.30
21824;BME280;11074;48.596;9.238;2023-05-12T04:30:40;97893.34;;;13.53;93.55
21824;BME280;11074;48.596;9.238;2023-05-12T04:33:07;97889.06;;;13.52;94.21
21824;BME280;11074;48.596;9.238;2023-05-12T04:35:33;97893.63;;;13.51;94.24
21824;BME280;11074;48.596;9.238;2023-05-12T04:37:59;97903.06;;;13.49;93.85
21824;BME280;11074;48.596;9.238;2023-05-12T04:40:28;97897.69;;;13.49;94.54
21824;BME280;11074;48.596;9.238;2023-05-12T04:42:54;97897.94;;;13.47;94.42
21824;BME280;11074;48.596;9.238;2023-05-12T04:45:20;97892.56;;;13.47;94.59
21824;BME280;11074;48.596;9.238;2023-05-12T04:47:46;97889.06;;;13.52;94.94
21824;BME280;11074;48.596;9.238;2023-05-12T04:50:12;97895.22;;;13.52;94.17
21824;BME280;11074;48.596;9.238;2023-05-12T04:52:38;97895.78;;;13.54;94.56
21824;BME280;11074;48.596;9.238;2023-05-12T04:55:05;97900.31;;;13.59;94.00
21824;BME280;11074;48.596;9.238;2023-05-12T04:57:32;97903.50;;;13.61;93.66
21824;BME280;11074;48.596;9.238;2023-05-12T04:59:58;97899.97;;;13.65;93.72
21824;BME280;11074;48.596;9.238;2023-05-12T05:02:24;97905.91;;;13.67;93.48
21824;BME280;11074;48.596;9.238;2023-05-12T05:04:50;97898.09;;;13.66;93.93
21824;BME280;11074;48.596;9.238;2023-05-12T05:07:17;97901.34;;;13.68;93.95
21824;BME280;11074;48.596;9.238;2023-05-12T05:09:43;97905.59;;;13.69;93.64
21824;BME280;11074;48.596;9.238;2023-05-12T05:12:08;97905.34;;;13.70;93.82
21824;BME280;11074;48.596;9.238;2023-05-12T05:14:34;97907.19;;;13.75;93.51
21824;BME280;11074;48.596;9.238;2023-05-12T05:17:00;97908.50;;;13.77;93.61
21824;BME280;11074;48.596;9.238;2023-05-12T05:19:26;97906.91;;;13.76;93.17
21824;BME280;11074;48.596;9.238;2023-05-12T05:21:51;97912.53;;;13.80;93.48
21824;BME280;11074;48.596;9.238;2023-05-12T05:24:21;97914.13;;;13.81;93.58
21824;BME280;11074;48.596;9.238;2023-05-12T05:26:46;97916.25;;;13.84;93.19
21824;BME280;11074;48.596;9.238;2023-05-12T05:29:12;97916.78;;;13.86;93.26
21824;BME280;11074;48.596;9.238;2023-05-12T05:31:38;97914.63;;;13.88;93.09
21824;BME280;11074;48.596;9.238;2023-05-12T05:34:03;97915.13;;;13.90;92.95
21824;BME280;11074;48.596;9.238;2023-05-12T05:36:29;97917.28;;;13.93;93.06
21824;BME280;11074;48.596;9.238;2023-05-12T05:38:55;97920.78;;;13.93;92.86
21824;BME280;11074;48.596;9.238;2023-05-12T05:41:20;97918.09;;;13.93;92.09
21824;BME280;11074;48.596;9.238;2023-05-12T05:43:47;97925.84;;;13.95;92.78
21824;BME280;11074;48.596;9.238;2023-05-12T05:46:13;97919.41;;;13.96;92.35
21824;BME280;11074;48.596;9.238;2023-05-12T05:48:38;97922.59;;;13.98;91.15
21824;BME280;11074;48.596;9.238;2023-05-12T05:51:04;97925.28;;;13.98;91.85
21824;BME280;11074;48.596;9.238;2023-05-12T05:53:31;97927.47;;;13.96;92.38
21824;BME280;11074;48.596;9.238;2023-05-12T05:55:56;97927.19;;;13.97;91.97
21824;BME280;11074;48.596;9.238;2023-05-12T05:58:22;97920.72;;;13.98;92.11
21824;BME280;11074;48.596;9.238;2023-05-12T06:00:48;97928.50;;;14.00;91.81
21824;BME280;11074;48.596;9.238;2023-05-12T06:03:14;97930.63;;;14.03;91.53
21824;BME280;11074;48.596;9.238;2023-05-12T06:05:40;97929.03;;;14.02;91.71
21824;BME280;11074;48.596;9.238;2023-05-12T06:08:08;97931.16;;;14.05;91.95
21824;BME280;11074;48.596;9.238;2023-05-12T06:10:36;97936.53;;;14.05;91.79
21824;BME280;11074;48.596;9.238;2023-05-12T06:13:01;97936.78;;;14.09;91.23
21824;BME280;11074;48.596;9.238;2023-05-12T06:15:27;97937.28;;;14.11;91.30
21824;BME280;11074;48.596;9.238;2023-05-12T06:17:53;97938.63;;;14.13;91.21
21824;BME280;11074;48.596;9.238;2023-05-12T06:20:18;97937.53;;;14.14;90.62
21824;BME280;11074;48.596;9.238;2023-05-12T06:22:44;97941.84;;;14.15;90.29
21824;BME280;11074;48.596;9.238;2023-05-12T06:25:10;97938.06;;;14.16;90.77
21824;BME280;11074;48.596;9.238;2023-05-12T06:27:36;97937.28;;;14.16;89.75
21824;BME280;11074;48.596;9.238;2023-05-12T06:30:03;97942.03;;;14.24;89.56
21824;BME280;11074;48.596;9.238;2023-05-12T06:32:29;97944.97;;;14.27;89.74
21824;BME280;11074;48.596;9.238;2023-05-12T06:34:55;97940.13;;;14.34;90.23
21824;BME280;11074;48.596;9.238;2023-05-12T06:37:20;97947.56;;;14.42;89.14
21824;BME280;11074;48.596;9.238;2023-05-12T06:39:46;97940.63;;;14.36;88.00
21824;BME280;11074;48.596;9.238;2023-05-12T06:42:11;97944.91;;;14.37;87.53
21824;BME280;11074;48.596;9.238;2023-05-12T06:44:37;97946.50;;;14.43;87.55
21824;BME280;11074;48.596;9.238;2023-05-12T06:47:03;97946.94;;;14.50;87.85
21824;BME280;11074;48.596;9.238;2023-05-12T06:49:29;97945.84;;;14.56;87.76
21824;BME280;11074;48.596;9.238;2023-05-12T06:51:55;97936.13;;;14.61;86.60
21824;BME280;11074;48.596;9.238;2023-05-12T06:54:21;97939.56;;;14.66;87.43
21824;BME280;11074;48.596;9.238;2023-05-12T06:56:47;97941.66;;;14.69;86.79
21824;BME280;11074;48.596;9.238;2023-05-12T06:59:13;97943.59;;;14.69;86.78
21824;BME280;11074;48.596;9.238;2023-05-12T07:01:38;97942.72;;;14.73;86.76
21824;BME280;11074;48.596;9.238;2023-05-12T07:04:05;97941.09;;;14.72;85.59
21824;BME280;11074;48.596;9.238;2023-05-12T07:06:32;97943.19;;;14.80;85.80
21824;BME280;11074;48.596;9.238;2023-05-12T07:08:59;97934.78;;;14.87;86.14
21824;BME280;11074;48.596;9.238;2023-05-12T07:11:24;97942.81;;;14.92;86.26
21824;BME280;11074;48.596;9.238;2023-05-12T07:13:50;97943.81;;;14.96;85.61
21824;BME280;11074;48.596;9.238;2023-05-12T07:16:17;97936.00;;;14.99;85.40
21824;BME280;11074;48.596;9.238;2023-05-12T07:18:44;97938.91;;;15.03;85.79
21824;BME280;11074;48.596;9.238;2023-05-12T07:21:10;97940.81;;;15.02;86.67
21824;BME280;11074;48.596;9.238;2023-05-12T07:23:37;97942.63;;;15.07;86.91
21824;BME280;11074;48.596;9.238;2023-05-12T07:26:05;97943.38;;;15.12;86.08
21824;BME280;11074;48.596;9.238;2023-05-12T07:28:33;97938.00;;;15.12;85.76
21824;BME280;11074;48.596;9.238;2023-05-12T07:31:05;97939.63;;;15.13;85.79
21824;BME280;11074;48.596;9.238;2023-05-12T07:33:32;97932.56;;;15.17;84.80
21824;BME280;11074;48.596;9.238;2023-05-12T07:35:59;97934.69;;;15.21;83.84
21824;BME280;11074;48.596;9.238;2023-05-12T07:38:25;97931.06;;;15.30;84.85
21824;BME280;11074;48.596;9.238;2023-05-12T07:40:51;97929.16;;;15.31;83.63
21824;BME280;11074;48.596;9.238;2023-05-12T07:43:17;97932.09;;;15.34;84.20
21824;BME280;11074;48.596;9.238;2023-05-12T07:45:44;97930.41;;;15.38;84.41
21824;BME280;11074;48.596;9.238;2023-05-12T07:48:10;97930.66;;;15.42;82.87
21824;BME280;11074;48.596;9.238;2023-05-12T07:50:36;97932.50;;;15.46;82.70
21824;BME280;11074;48.596;9.238;2023-05-12T07:53:02;97931.97;;;15.44;81.28
21824;BME280;11074;48.596;9.238;2023-05-12T07:55:29;97936.00;;;15.47;83.71
21824;BME280;11074;48.596;9.238;2023-05-12T07:57:54;97930.88;;;15.45;85.04
21824;BME280;11074;48.596;9.238;2023-05-12T08:00:20;97926.56;;;15.44;86.04
21824;BME280;11074;48.596;9.238;2023-05-12T08:02:46;97925.44;;;15.50;87.07
21824;BME280;11074;48.596;9.238;2023-05-12T08:05:12;97935.09;;;15.56;86.05
21824;BME280;11074;48.596;9.238;2023-05-12T08:07:38;97934.03;;;15.52;84.97
21824;BME280;11074;48.596;9.238;2023-05-12T08:10:05;97927.72;;;15.62;85.03
21824;BME280;11074;48.596;9.238;2023-05-12T08:12:32;97933.25;;;15.70;83.58
21824;BME280;11074;48.596;9.238;2023-05-12T08:14:58;97927.22;;;15.78;82.49
21824;BME280;11074;48.596;9.238;2023-05-12T08:17:24;97931.22;;;15.81;80.72
21824;BME280;11074;48.596;9.238;2023-05-12T08:19:50;97934.13;;;15.85;80.44
21824;BME280;11074;48.596;9.238;2023-05-12T08:22:16;97938.06;;;15.92;80.30
21824;BME280;11074;48.596;9.238;2023-05-12T08:24:42;97927.22;;;15.97;78.83
21824;BME280;11074;48.596;9.238;2023-05-12T08:27:07;97937.88;;;16.07;78.72
21824;BME280;11074;48.596;9.238;2023-05-12T08:29:33;97928.97;;;16.07;79.56
21824;BME280;11074;48.596;9.238;2023-05-12T08:31:59;97932.97;;;16.09;78.24
21824;BME280;11074;48.596;9.238;2023-05-12T08:34:25;97933.16;;;16.13;78.65
21824;BME280;11074;48.596;9.238;2023-05-12T08:36:52;97937.97;;;16.16;78.91
21824;BME280;11074;48.596;9.238;2023-05-12T08:39:18;97935.66;;;16.09;76.12
21824;BME280;11074;48.596;9.238;2023-05-12T08:42:00;97938.66;;;16.08;75.93
21824;BME280;11074;48.596;9.238;2023-05-12T08:44:30;97937.88;;;16.07;76.21
21824;BME280;11074;48.596;9.238;2023-05-12T08:46:58;97939.19;;;16.10;76.98
21824;BME280;11074;48.596;9.238;2023-05-12T08:49:30;97934.44;;;16.20;76.38
21824;BME280;11074;48.596;9.238;2023-05-12T08:52:00;97932.16;;;16.27;77.12
21824;BME280;11074;48.596;9.238;2023-05-12T08:54:28;97926.75;;;16.27;74.73
21824;BME280;11074;48.596;9.238;2023-05-12T08:56:55;97935.84;;;16.31;75.39
21824;BME280;11074;48.596;9.238;2023-05-12T08:59:22;97939.47;;;16.41;75.17
21824;BME280;11074;48.596;9.238;2023-05-12T09:01:49;97928.69;;;16.41;75.70
21824;BME280;11074;48.596;9.238;2023-05-12T09:04:16;97927.78;;;16.45;74.88
21824;BME280;11074;48.596;9.238;2023-05-12T09:06:43;97926.13;;;16.49;73.79
21824;BME280;11074;48.596;9.238;2023-05-12T09:09:09;97927.59;;;16.60;74.65
21824;BME280;11074;48.596;9.238;2023-05-12T09:11:37;97930.38;;;16.69;75.20
21824;BME280;11074;48.596;9.238;2023-05-12T09:14:17;97933.50;;;16.76;74.54
21824;BME280;11074;48.596;9.238;2023-05-12T09:16:53;97924.03;;;16.78;73.85
21824;BME280;11074;48.596;9.238;2023-05-12T09:19:20;97926.63;;;16.83;72.71
21824;BME280;11074;48.596;9.238;2023-05-12T09:21:47;97927.56;;;16.92;73.59
21824;BME280;11074;48.596;9.238;2023-05-12T09:24:12;97931.56;;;16.95;73.93
21824;BME280;11074;48.596;9.238;2023-05-12T09:29:12;97928.34;;;17.07;72.75
21824;BME280;11074;48.596;9.238;2023-05-12T09:31:38;97929.75;;;17.18;72.68
21824;BME280;11074;48.596;9.238;2023-05-12T09:34:13;97926.94;;;17.23;72.23
21824;BME280;11074;48.596;9.238;2023-05-12T09:36:38;97923.16;;;17.24;73.52
21824;BME280;11074;48.596;9.238;2023-05-12T09:39:08;97926.66;;;17.24;71.77
21824;BME280;11074;48.596;9.238;2023-05-12T09:41:39;97920.44;;;17.24;71.91
21824;BME280;11074;48.596;9.238;2023-05-12T09:44:06;97917.03;;;17.32;72.15
21824;BME280;11074;48.596;9.238;2023-05-12T09:46:33;97918.72;;;17.41;72.59
21824;BME280;11074;48.596;9.238;2023-05-12T09:49:00;97925.84;;;17.51;71.67
21824;BME280;11074;48.596;9.238;2023-05-12T09:51:29;97916.63;;;17.66;71.13
21824;BME280;11074;48.596;9.238;2023-05-12T09:53:56;97918.13;;;17.72;70.08
21824;BME280;11074;48.596;9.238;2023-05-12T09:56:26;97922.41;;;17.73;69.48
21824;BME280;11074;48.596;9.238;2023-05-12T09:58:55;97913.41;;;17.77;70.55
21824;BME280;11074;48.596;9.238;2023-05-12T10:01:23;97922.59;;;17.76;70.16
21824;BME280;11074;48.596;9.238;2023-05-12T10:03:54;97919.50;;;17.83;69.49
21824;BME280;11074;48.596;9.238;2023-05-12T10:06:30;97920.91;;;17.80;69.95
21824;BME280;11074;48.596;9.238;2023-05-12T10:09:30;97921.19;;;17.79;69.53
21824;BME280;11074;48.596;9.238;2023-05-12T10:11:59;97923.28;;;17.82;69.31
21824;BME280;11074;48.596;9.238;2023-05-12T10:14:25;97917.19;;;17.76;68.86
21824;BME280;11074;48.596;9.238;2023-05-12T10:16:51;97919.00;;;17.67;68.69
21824;BME280;11074;48.596;9.238;2023-05-12T10:19:18;97919.81;;;17.68;69.79
21824;BME280;11074;48.596;9.238;2023-05-12T10:21:45;97914.13;;;17.69;70.49
21824;BME280;11074;48.596;9.238;2023-05-12T10:24:15;97911.53;;;17.64;70.35
21824;BME280;11074;48.596;9.238;2023-05-12T10:26:42;97920.13;;;17.66;70.99
21824;BME280;11074;48.596;9.238;2023-05-12T10:29:09;97913.44;;;17.64;70.53
21824;BME280;11074;48.596;9.238;2023-05-12T10:31:38;97915.00;;;17.65;71.29
21824;BME280;11074;48.596;9.238;2023-05-12T10:34:04;97915.66;;;17.62;71.39
21824;BME280;11074;48.596;9.238;2023-05-12T10:36:42;97918.50;;;17.51;69.73
21824;BME280;11074;48.596;9.238;2023-05-12T10:39:08;97917.72;;;17.51;69.04
21824;BME280;11074;48.596;9.238;2023-05-12T10:41:34;97917.41;;;17.52;70.84
21824;BME280;11074;48.596;9.238;2023-05-12T10:44:00;97918.03;;;17.49;70.84
21824;BME280;11074;48.596;9.238;2023-05-12T10:46:27;97910.03;;;17.44;71.36
21824;BME280;11074;48.596;9.238;2023-05-12T10:49:09;97915.03;;;17.37;70.50
21824;BME280;11074;48.596;9.238;2023-05-12T10:54:10;97911.81;;;17.35;71.81
21824;BME280;11074;48.596;9.238;2023-05-12T11:01:36;97912.50;;;17.41;69.89
21824;BME280;11074;48.596;9.238;2023-05-12T11:04:16;97910.72;;;17.50;71.33
21824;BME280;11074;48.596;9.238;2023-05-12T11:06:44;97912.72;;;17.58;71.75
21824;BME280;11074;48.596;9.238;2023-05-12T11:09:11;97916.81;;;17.69;70.15
21824;BME280;11074;48.596;9.238;2023-05-12T11:11:37;97917.31;;;17.71;68.44
21824;BME280;11074;48.596;9.238;2023-05-12T11:14:03;97916.47;;;17.84;69.21
21824;BME280;11074;48.596;9.238;2023-05-12T11:16:28;97922.78;;;17.93;68.37
21824;BME280;11074;48.596;9.238;2023-05-12T11:19:04;97922.72;;;18.07;69.56
21824;BME280;11074;48.596;9.238;2023-05-12T11:21:34;97928.31;;;18.10;69.25
21824;BME280;11074;48.596;9.238;2023-05-12T11:24:01;97921.81;;;18.11;68.15
21824;BME280;11074;48.596;9.238;2023-05-12T11:26:30;97920.69;;;18.12;69.69
21824;BME280;11074;48.596;9.238;2023-05-12T11:28:56;97925.47;;;18.15;69.63
21824;BME280;11074;48.596;9.238;2023-05-12T11:31:22;97926.91;;;18.13;69.30
21824;BME280;11074;48.596;9.238;2023-05-12T11:33:49;97929.13;;;18.11;69.84
21824;BME280;11074;48.596;9.238;2023-05-12T11:36:17;97925.47;;;18.15;69.63
21824;BME280;11074;48.596;9.238;2023-05-12T11:38:51;97926.34;;;18.25;69.25
21824;BME280;11074;48.596;9.238;2023-05-12T11:41:24;97922.53;;;18.26;68.62
21824;BME280;11074;48.596;9.238;2023-05-12T11:43:51;97932.25;;;18.27;69.39
21824;BME280;11074;48.596;9.238;2023-05-12T11:46:28;97921.44;;;18.27;67.37
21824;BME280;11074;48.596;9.238;2023-05-12T11:48:58;97925.44;;;18.29;69.89
21824;BME280;11074;48.596;9.238;2023-05-12T11:51:26;97928.88;;;18.21;67.29
21824;BME280;11074;48.596;9.238;2023-05-12T11:53:52;97938.88;;;18.21;69.31
21824;BME280;11074;48.596;9.238;2023-05-12T11:56:21;97933.13;;;18.13;70.64
21824;BME280;11074;48.596;9.238;2023-05-12T11:59:06;97936.19;;;17.98;71.63
21824;BME280;11074;48.596;9.238;2023-05-12T12:01:31;97942.59;;;17.89;72.94
21824;BME280;11074;48.596;9.238;2023-05-12T12:03:58;97936.41;;;17.88;72.75
21824;BME280;11074;48.596;9.238;2023-05-12T12:06:24;97939.00;;;17.93;72.79
21824;BME280;11074;48.596;9.238;2023-05-12T12:08:58;97940.47;;;17.99;72.42
21824;BME280;11074;48.596;9.238;2023-05-12T12:11:27;97942.09;;;18.00;72.67
21824;BME280;11074;48.596;9.238;2023-05-12T12:13:55;97948.59;;;17.99;71.82
21824;BME280;11074;48.596;9.238;2023-05-12T12:16:26;97948.22;;;17.92;72.51
21824;BME280;11074;48.596;9.238;2023-05-12T12:18:53;97948.22;;;17.92;72.63
21824;BME280;11074;48.596;9.238;2023-05-12T12:21:19;97943.91;;;17.91;73.21
21824;BME280;11074;48.596;9.238;2023-05-12T12:23:46;97942.19;;;17.95;72.99
21824;BME280;11074;48.596;9.238;2023-05-12T12:26:12;97951.28;;;17.99;73.48
21824;BME280;11074;48.596;9.238;2023-05-12T12:28:47;97945.47;;;18.06;72.96
21824;BME280;11074;48.596;9.238;2023-05-12T12:31:14;97956.69;;;17.99;72.18
21824;BME280;11074;48.596;9.238;2023-05-12T12:33:40;97952.50;;;18.07;73.04
21824;BME280;11074;48.596;9.238;2023-05-12T12:36:07;97950.97;;;18.14;72.73
21824;BME280;11074;48.596;9.238;2023-05-12T12:38:32;97951.81;;;18.01;72.09
21824;BME280;11074;48.596;9.238;2023-05-12T12:40:58;97949.19;;;17.96;71.87
21824;BME280;11074;48.596;9.238;2023-05-12T12:43:25;97948.69;;;17.94;72.42
21824;BME280;11074;48.596;9.238;2023-05-12T12:45:51;97951.63;;;17.84;71.49
21824;BME280;11074;48.596;9.238;2023-05-12T12:48:19;97949.53;;;17.81;72.52
21824;BME280;11074;48.596;9.238;2023-05-12T12:50:45;97949.28;;;17.69;73.19
21824;BME280;11074;48.596;9.238;2023-05-12T12:53:11;97949.38;;;17.64;72.19
21824;BME280;11074;48.596;9.238;2023-05-12T12:55:36;97953.97;;;17.64;71.97
21824;BME280;11074;48.596;9.238;2023-05-12T12:58:02;97954.84;;;17.73;72.87
21824;BME280;11074;48.596;9.238;2023-05-12T13:00:28;97950.03;;;17.83;73.15
21824;BME280;11074;48.596;9.238;2023-05-12T13:02:54;97955.44;;;17.83;72.96
21824;BME280;11074;48.596;9.238;2023-05-12T13:05:20;97955.63;;;17.87;72.30
21824;BME280;11074;48.596;9.238;2023-05-12T13:07:46;97953.53;;;17.84;73.19
21824;BME280;11074;48.596;9.238;2023-05-12T13:10:12;97959.16;;;17.87;73.08